Airfield :
LOGIN :

Register | Disclaimer

   EN    FR    IT 

 










Legend :    VFR   Marginal VFR   IFR   Intensive IFR   Very Intensive IFR
Visi :
Ceiling :
>= 8 km
>= 3000ft
5 to 8 km
1000 to 3000 ft
1500m to 5 km
500 to 1000 ft
800 to 1500m
200 to 500 ft
< 800m
< 200 ft
Symbols :   Thunderstorms  Fog  Heavy snow  Heavy precipitations  Wind > 20 kt
SIGMETs :     Misc.  Thunderstorms  Icing  Turbulence  Mountain Waves  Volcanic Ashes







- Airport Elevation : 144 ft
- IATA code : PGF
- Download approach charts


LFMP - Perpignan

CURRENT METAR :
  • 211700Z AUTO 31017KT 9999 BKN066 25/13 Q1014 TEMPO 32015G25KT

EXPIRED METARs :
  • 211630Z AUTO 31015KT 9999 BKN066 BKN082 25/14 Q1014 TEMPO 32015G25KT
  • 211600Z AUTO 31012KT 280V350 9999 BKN064 25/13 Q1014 TEMPO 32015G25KT SCT050TCU
  • 211530Z AUTO 30014KT 9999 OVC060 25/13 Q1014 TEMPO 32015G25KT SCT050TCU
  • 211500Z AUTO 30015KT 270V330 9999 OVC060 25/13 Q1014 TEMPO SCT050TCU
  • 211430Z AUTO 32011KT 9999 OVC058 25/13 Q1014 TEMPO SCT050TCU

TAF TAF LFMP
Valid from the 21 at 15:00 until the 22 at 15:00 UTC


211400Z 2115/2215 32012KT 9999 SCT060
TEMPO 2115/2117 SCT050TCU
TEMPO 2117/2120 32015G25KT
ATIS : +33 4 68 63 75 12
No reported NOTAMs for that airfield.



MET'MAP, your aeronautical weather chart ! - Copyright ORBIFLY December 2007 - Disclaimer

ORBIFLY MET'MAP TEAM :

Programming & Development : Alexandra Zaïnal
Concept & Development : Baudouin d'Aumeries
Co-Development & Prog : Marc-Olivier Méhu
Technical & hardware support : Manuel Goepfert

Contact : metmap@orbifly.com




SOURCES & CREDITS :

   NOAA